Terminal Aerodrome Forecast
Issued by NWS Sioux Falls, SD

Home | Current Version | Previous Version | Graphics & Text | Print | Product List | Glossary On
Versions: 1 2 3 4 5 6 7 8 9 10 11 12
194
FTUS43 KFSD 211132
TAFHON
TAF
KHON 211132Z 2112/2212 13010KT P6SM -SHRA BKN100
     FM211330 14012KT P6SM SCT250
     FM211800 17007KT P6SM SCT250
     FM212100 VRB03KT P6SM FEW140
     FM220500 01007KT P6SM FEW250=

USA.gov is the U.S. government's official web portal to all federal, state and local government web resources and services.